createdAt,value
2019-01-06T00:01:30.574Z,8.83
2019-01-06T00:03:58.320Z,8.73
2019-01-06T00:06:31.889Z,11.53
2019-01-06T00:09:08.746Z,9.00
2019-01-06T00:11:39.516Z,10.83
2019-01-06T00:14:13.572Z,9.53
2019-01-06T00:16:53.641Z,9.00
2019-01-06T00:19:38.129Z,9.80
2019-01-06T00:22:06.182Z,10.97
2019-01-06T00:24:33.909Z,11.90
2019-01-06T00:27:01.851Z,10.30
2019-01-06T00:29:32.485Z,10.30
2019-01-06T00:32:03.302Z,9.80
2019-01-06T00:34:31.044Z,9.87
2019-01-06T00:37:08.023Z,10.43
2019-01-06T00:39:54.205Z,10.50
2019-01-06T00:42:21.926Z,9.97
2019-01-06T00:45:06.284Z,8.80
2019-01-06T00:47:34.011Z,11.73
2019-01-06T00:50:18.404Z,9.77
2019-01-06T00:52:55.024Z,10.07
2019-01-06T00:55:22.760Z,5.70
2019-01-06T00:58:07.103Z,8.47
2019-01-06T01:00:40.621Z,7.97
2019-01-06T01:03:14.065Z,5.33
2019-01-06T01:05:53.906Z,8.37
2019-01-06T01:08:38.284Z,7.20
2019-01-06T01:11:15.084Z,6.20
2019-01-06T01:13:55.165Z,8.50
2019-01-06T01:16:25.901Z,8.80
2019-01-06T01:18:59.903Z,4.10
2019-01-06T01:21:33.485Z,4.70
2019-01-06T01:24:16.551Z,4.13
2019-01-06T01:26:48.537Z,5.27
2019-01-06T01:29:22.784Z,4.87
2019-01-06T01:31:56.552Z,3.83
2019-01-06T01:34:30.393Z,5.63
2019-01-06T01:37:07.193Z,3.23
2019-01-06T01:39:38.150Z,3.77
2019-01-06T01:42:08.705Z,3.93
2019-01-06T01:44:52.845Z,8.13
2019-01-06T01:47:37.268Z,3.27
2019-01-06T01:50:05.713Z,5.10
2019-01-06T01:52:33.568Z,5.00
2019-01-06T01:55:17.643Z,3.60
2019-01-06T01:58:01.993Z,6.90
2019-01-06T02:00:32.501Z,3.93
2019-01-06T02:03:17.477Z,4.50
2019-01-06T02:06:01.770Z,4.47
2019-01-06T02:08:29.552Z,5.30
2019-01-06T02:10:57.361Z,5.90
2019-01-06T02:13:28.013Z,5.13
2019-01-06T02:16:10.875Z,5.40
2019-01-06T02:18:44.610Z,6.03
2019-01-06T02:21:18.419Z,5.77
2019-01-06T02:23:48.906Z,6.17
2019-01-06T02:26:22.693Z,5.90
2019-01-06T02:29:07.069Z,5.70
2019-01-06T02:31:51.435Z,5.80
2019-01-06T02:34:31.046Z,6.33
2019-01-06T02:37:15.667Z,4.80
2019-01-06T02:39:58.578Z,5.10
2019-01-06T02:42:35.220Z,5.70
2019-01-06T02:45:08.990Z,5.63
2019-01-06T02:47:48.614Z,6.00
2019-01-06T02:50:31.464Z,7.63
2019-01-06T02:53:05.364Z,8.60
2019-01-06T02:55:49.940Z,7.00
2019-01-06T02:58:17.657Z,12.40
2019-01-06T03:00:48.412Z,7.93
2019-01-06T03:03:32.521Z,6.63
2019-01-06T03:06:17.151Z,7.40
2019-01-06T03:08:56.996Z,6.43
2019-01-06T03:11:36.842Z,5.73
2019-01-06T03:14:13.524Z,6.63
2019-01-06T03:16:41.263Z,7.00
2019-01-06T03:19:26.876Z,5.57
2019-01-06T03:22:11.448Z,7.13
2019-01-06T03:24:41.927Z,6.40
2019-01-06T03:27:12.560Z,6.00
2019-01-06T03:29:56.836Z,7.13
2019-01-06T03:32:27.370Z,7.53
2019-01-06T03:35:13.725Z,7.37
2019-01-06T03:37:41.477Z,6.77
2019-01-06T03:40:17.973Z,7.30
2019-01-06T03:42:51.401Z,9.77
2019-01-06T03:45:31.268Z,8.20
2019-01-06T03:48:14.362Z,7.80
2019-01-06T03:50:58.554Z,7.47
2019-01-06T03:53:26.383Z,6.93
2019-01-06T03:56:03.362Z,10.33
2019-01-06T03:58:31.221Z,8.47
2019-01-06T04:01:01.688Z,8.77
2019-01-06T04:03:29.444Z,7.57
2019-01-06T04:06:02.807Z,8.53
2019-01-06T04:08:42.563Z,5.97
2019-01-06T04:11:15.067Z,5.20
2019-01-06T04:13:46.150Z,5.37
2019-01-06T04:16:19.901Z,5.50
2019-01-06T04:18:56.223Z,8.23
2019-01-06T04:21:40.545Z,6.13
2019-01-06T04:24:14.294Z,4.27
2019-01-06T04:26:44.541Z,4.57
2019-01-06T04:29:28.718Z,4.67
2019-01-06T04:32:02.499Z,7.60
2019-01-06T04:34:48.563Z,4.40
2019-01-06T04:37:19.209Z,4.00
2019-01-06T04:39:46.962Z,3.47
2019-01-06T04:42:26.982Z,4.20
2019-01-06T04:44:57.480Z,4.10
2019-01-06T04:47:41.586Z,4.30
2019-01-06T04:50:24.499Z,5.30
2019-01-06T04:52:52.232Z,3.80
2019-01-06T04:55:26.214Z,4.03
2019-01-06T04:58:05.802Z,4.23
2019-01-06T05:00:48.690Z,4.70
2019-01-06T05:03:28.556Z,4.57
2019-01-06T05:06:13.041Z,4.23
2019-01-06T05:08:57.935Z,5.10
2019-01-06T05:11:25.696Z,5.47
2019-01-06T05:13:53.411Z,6.20
2019-01-06T05:16:23.922Z,5.37
2019-01-06T05:19:00.570Z,4.20
2019-01-06T05:21:28.428Z,7.17
2019-01-06T05:24:12.805Z,3.73
2019-01-06T05:26:49.501Z,3.87
2019-01-06T05:29:29.349Z,4.77
2019-01-06T05:32:09.150Z,4.30
2019-01-06T05:34:49.245Z,4.30
2019-01-06T05:37:26.291Z,3.73
2019-01-06T05:39:54.014Z,3.60
2019-01-06T05:42:24.734Z,3.30
2019-01-06T05:45:07.966Z,4.73
2019-01-06T05:47:35.688Z,3.40
2019-01-06T05:50:03.546Z,4.70
2019-01-06T05:52:31.272Z,3.90
2019-01-06T05:55:05.110Z,4.47
2019-01-06T05:57:32.841Z,2.70
2019-01-06T06:00:12.819Z,2.90
2019-01-06T06:02:58.961Z,2.57
2019-01-06T06:05:32.751Z,2.30
2019-01-06T06:08:00.469Z,3.70
2019-01-06T06:10:44.795Z,3.50
2019-01-06T06:13:29.111Z,3.40
2019-01-06T06:15:56.843Z,2.50
2019-01-06T06:18:24.669Z,3.40
2019-01-06T06:21:08.989Z,3.63
2019-01-06T06:23:48.767Z,4.33
2019-01-06T06:26:16.506Z,3.13
2019-01-06T06:28:47.020Z,3.80
2019-01-06T06:31:14.749Z,3.50
2019-01-06T06:33:51.128Z,4.07
2019-01-06T06:36:24.726Z,4.07
2019-01-06T06:38:52.546Z,5.03
2019-01-06T06:41:32.411Z,4.20
2019-01-06T06:44:02.827Z,6.23
2019-01-06T06:46:47.483Z,5.27
2019-01-06T06:49:30.391Z,5.93
2019-01-06T06:52:00.708Z,7.27
2019-01-06T06:54:34.547Z,4.53
2019-01-06T06:57:40.014Z,5.40
2019-01-06T07:00:28.402Z,5.40
2019-01-06T07:02:56.872Z,5.20
2019-01-06T07:05:24.604Z,6.50
2019-01-06T07:07:58.351Z,4.80
2019-01-06T07:10:26.074Z,7.00
2019-01-06T07:13:02.580Z,6.10
2019-01-06T07:15:36.257Z,7.70
2019-01-06T07:18:10.871Z,5.53
2019-01-06T07:20:56.205Z,5.97
2019-01-06T07:23:39.059Z,8.60
2019-01-06T07:26:15.749Z,7.53
2019-01-06T07:28:46.259Z,8.27
2019-01-06T07:31:31.032Z,6.67
2019-01-06T07:34:17.473Z,7.33
2019-01-06T07:37:03.329Z,7.80
2019-01-06T07:39:39.888Z,7.53
2019-01-06T07:42:07.595Z,8.33
2019-01-06T07:44:44.343Z,7.80
2019-01-06T07:47:28.679Z,8.80
2019-01-06T07:50:08.354Z,9.57
2019-01-06T07:52:39.082Z,8.97
2019-01-06T07:55:06.925Z,12.23
2019-01-06T07:57:50.052Z,8.37
2019-01-06T08:00:26.526Z,9.30
2019-01-06T08:02:54.349Z,7.50
2019-01-06T08:05:22.109Z,10.90
2019-01-06T08:07:52.616Z,9.77
2019-01-06T08:10:23.347Z,8.30
2019-01-06T08:12:51.067Z,10.30
2019-01-06T08:15:18.932Z,10.90
2019-01-06T08:18:04.775Z,15.20
2019-01-06T08:20:44.607Z,20.30
2019-01-06T08:23:15.309Z,23.93
2019-01-06T08:25:45.820Z,18.13
2019-01-06T08:28:22.376Z,14.43
2019-01-06T08:30:52.891Z,11.63
2019-01-06T08:33:32.758Z,9.57
2019-01-06T08:36:03.295Z,9.03
2019-01-06T08:38:47.352Z,15.50
2019-01-06T08:41:31.758Z,7.53
2019-01-06T08:44:08.618Z,6.57
2019-01-06T08:46:36.355Z,8.63
2019-01-06T08:49:06.848Z,8.13
2019-01-06T08:51:38.000Z,8.00
2019-01-06T08:54:20.837Z,9.27
2019-01-06T08:56:54.471Z,7.80
2019-01-06T08:59:38.960Z,8.70
2019-01-06T09:02:06.720Z,8.70
2019-01-06T09:04:34.477Z,9.33
2019-01-06T09:07:05.012Z,7.87
2019-01-06T09:10:00.898Z,12.30
2019-01-06T09:12:28.745Z,7.73
2019-01-06T09:15:05.733Z,8.20
2019-01-06T09:17:33.518Z,8.27
2019-01-06T09:20:07.605Z,7.90
2019-01-06T09:22:41.546Z,9.47
2019-01-06T09:25:12.154Z,7.80
2019-01-06T09:27:42.431Z,7.07
2019-01-06T09:30:10.256Z,6.90
2019-01-06T09:32:47.079Z,6.07
2019-01-06T09:35:31.426Z,5.73
2019-01-06T09:38:15.777Z,5.30
2019-01-06T09:40:52.578Z,6.47
2019-01-06T09:43:23.346Z,5.80
2019-01-06T09:46:03.225Z,8.20
2019-01-06T09:48:31.507Z,4.87
2019-01-06T09:50:59.351Z,5.70
2019-01-06T09:53:30.151Z,5.40
2019-01-06T09:56:14.240Z,5.73
2019-01-06T09:58:51.029Z,5.17
2019-01-06T10:01:35.653Z,4.00
2019-01-06T10:04:03.399Z,3.60
2019-01-06T10:06:34.152Z,4.37
2019-01-06T10:09:04.867Z,4.40
2019-01-06T10:11:49.382Z,7.23
2019-01-06T10:14:32.278Z,4.27
2019-01-06T10:17:16.937Z,4.23
2019-01-06T10:19:56.740Z,7.73
2019-01-06T10:22:33.509Z,4.40
2019-01-06T10:25:01.348Z,4.33
2019-01-06T10:27:29.078Z,3.27
2019-01-06T10:30:13.347Z,3.47
2019-01-06T10:32:44.021Z,5.83
2019-01-06T10:35:20.866Z,3.60
2019-01-06T10:38:05.627Z,3.40
2019-01-06T10:40:42.315Z,3.57
2019-01-06T10:43:16.679Z,3.30
2019-01-06T10:45:56.544Z,3.37
2019-01-06T10:48:24.282Z,4.63
2019-01-06T10:50:54.668Z,4.50
2019-01-06T10:53:38.981Z,5.93
2019-01-06T10:56:09.461Z,5.10
2019-01-06T10:58:39.971Z,3.50
2019-01-06T11:01:24.379Z,3.30
2019-01-06T11:03:58.161Z,2.70
2019-01-06T11:06:42.520Z,3.90
2019-01-06T11:09:10.236Z,6.47
2019-01-06T11:11:49.812Z,3.40
2019-01-06T11:14:23.527Z,3.47
2019-01-06T11:17:08.002Z,2.60
2019-01-06T11:19:52.469Z,2.60
2019-01-06T11:22:23.156Z,3.77
2019-01-06T11:25:07.735Z,3.07
2019-01-06T11:27:47.371Z,3.10
2019-01-06T11:30:31.458Z,7.70
2019-01-06T11:33:15.806Z,3.53
2019-01-06T11:35:46.320Z,2.90
2019-01-06T11:38:23.170Z,2.63
2019-01-06T11:41:07.977Z,3.03
2019-01-06T11:43:35.426Z,3.00
2019-01-06T11:46:06.105Z,2.90
2019-01-06T11:48:50.695Z,2.13
2019-01-06T11:51:24.243Z,3.03
2019-01-06T11:54:04.305Z,3.27
2019-01-06T11:56:40.603Z,2.80
2019-01-06T11:59:17.113Z,2.90
2019-01-06T12:02:01.503Z,3.10
2019-01-06T12:04:45.828Z,3.93
2019-01-06T12:07:13.570Z,3.33
2019-01-06T12:09:50.637Z,5.37
2019-01-06T12:12:24.389Z,4.20
2019-01-06T12:15:08.985Z,4.23
2019-01-06T12:17:39.567Z,5.27
2019-01-06T12:20:07.419Z,3.73
2019-01-06T12:22:43.766Z,4.00
2019-01-06T12:25:26.908Z,4.67
2019-01-06T12:28:12.765Z,5.30
2019-01-06T12:30:58.666Z,4.70
2019-01-06T12:33:29.322Z,4.70
2019-01-06T12:36:13.575Z,5.13
2019-01-06T12:38:47.406Z,6.63
2019-01-06T12:41:18.064Z,4.80
2019-01-06T12:44:02.650Z,5.23
2019-01-06T12:46:48.517Z,5.60
2019-01-06T12:49:34.250Z,4.87
2019-01-06T12:52:18.778Z,4.90
2019-01-06T12:55:01.940Z,4.07
2019-01-06T12:57:35.521Z,3.60
2019-01-06T13:00:20.100Z,4.30
2019-01-06T13:03:05.947Z,4.07
2019-01-06T13:05:33.667Z,3.60
2019-01-06T13:08:19.846Z,4.83
2019-01-06T13:10:50.584Z,3.90
2019-01-06T13:13:38.607Z,5.27
2019-01-06T13:16:09.165Z,4.83
2019-01-06T13:18:49.278Z,3.50
2019-01-06T13:21:17.120Z,2.73
2019-01-06T13:23:47.665Z,2.90
2019-01-06T13:26:15.413Z,3.40
2019-01-06T13:28:43.177Z,2.40
2019-01-06T13:31:16.611Z,3.97
2019-01-06T13:33:56.707Z,3.30
2019-01-06T13:36:41.104Z,3.20
2019-01-06T13:39:12.121Z,3.50
2019-01-06T13:41:55.148Z,3.00
2019-01-06T13:44:22.899Z,3.50
2019-01-06T13:47:07.718Z,2.47
2019-01-06T13:49:41.255Z,3.10
2019-01-06T13:52:25.873Z,3.43
2019-01-06T13:54:59.627Z,4.60
2019-01-06T13:57:39.402Z,3.57
2019-01-06T14:00:25.059Z,4.03
2019-01-06T14:02:55.550Z,3.57
2019-01-06T14:05:23.300Z,3.20
2019-01-06T14:07:59.759Z,2.80
2019-01-06T14:10:27.526Z,7.17
2019-01-06T14:12:58.514Z,2.40
2019-01-06T14:15:42.877Z,2.70
2019-01-06T14:18:19.450Z,2.80
2019-01-06T14:20:47.235Z,3.30
2019-01-06T14:23:30.361Z,2.53
2019-01-06T14:26:00.751Z,2.80
2019-01-06T14:28:45.056Z,3.30
2019-01-06T14:31:30.904Z,2.47
2019-01-06T14:33:58.665Z,3.10
2019-01-06T14:36:44.779Z,4.40
2019-01-06T14:39:12.562Z,3.00
2019-01-06T14:41:59.494Z,4.03
2019-01-06T14:44:42.626Z,3.33
2019-01-06T14:47:10.501Z,3.03
2019-01-06T14:49:41.267Z,4.07
2019-01-06T14:52:18.069Z,2.53
2019-01-06T14:54:48.860Z,4.50
2019-01-06T14:57:28.537Z,3.70
2019-01-06T14:59:56.282Z,6.43
2019-01-06T15:02:24.146Z,5.83
2019-01-06T15:05:01.055Z,5.80
2019-01-06T15:07:34.847Z,4.87
2019-01-06T15:10:17.958Z,5.57
2019-01-06T15:12:54.989Z,6.40
2019-01-06T15:15:31.900Z,20.67
2019-01-06T15:18:02.564Z,12.33
2019-01-06T15:20:46.945Z,5.30
2019-01-06T15:23:26.629Z,3.80
2019-01-06T15:26:11.017Z,4.40
2019-01-06T15:28:41.529Z,3.60
2019-01-06T15:31:18.417Z,4.37
2019-01-06T15:34:02.844Z,3.77
2019-01-06T15:36:47.413Z,3.03
2019-01-06T15:39:15.173Z,4.10
2019-01-06T15:41:54.959Z,3.40
2019-01-06T15:44:34.727Z,3.30
2019-01-06T15:47:05.505Z,3.33
2019-01-06T15:49:33.244Z,6.23
2019-01-06T15:52:17.669Z,4.07
2019-01-06T15:55:02.209Z,2.93
2019-01-06T15:57:32.742Z,3.60
2019-01-06T16:00:03.253Z,3.20
2019-01-06T16:02:40.091Z,3.80
2019-01-06T16:05:14.938Z,9.10
2019-01-06T16:07:55.265Z,4.90
2019-01-06T16:10:32.189Z,5.80
2019-01-06T16:13:16.975Z,16.03
2019-01-06T16:15:44.704Z,5.63
2019-01-06T16:18:21.114Z,6.87
2019-01-06T16:20:48.828Z,4.53
2019-01-06T16:23:19.283Z,5.23
2019-01-06T16:25:50.093Z,5.40
2019-01-06T16:28:36.733Z,5.90
2019-01-06T16:31:16.794Z,5.10
2019-01-06T16:33:47.388Z,9.23
2019-01-06T16:36:17.625Z,5.93
2019-01-06T16:39:02.523Z,7.80
2019-01-06T16:41:36.065Z,7.90
2019-01-06T16:44:03.807Z,13.53
2019-01-06T16:46:43.812Z,12.63
2019-01-06T16:49:17.362Z,18.03
2019-01-06T16:51:48.380Z,36.10
2019-01-06T16:54:28.203Z,20.37
2019-01-06T16:56:55.967Z,19.87
2019-01-06T16:59:40.670Z,15.87
2019-01-06T17:02:17.672Z,9.80
2019-01-06T17:04:48.616Z,6.40
2019-01-06T17:07:19.371Z,11.73
2019-01-06T17:09:55.913Z,9.10
2019-01-06T17:12:40.373Z,8.57
2019-01-06T17:15:11.385Z,7.43
2019-01-06T17:17:42.137Z,7.07
2019-01-06T17:20:09.870Z,9.50
2019-01-06T17:22:37.628Z,11.70
2019-01-06T17:25:05.580Z,9.50
2019-01-06T17:27:49.895Z,11.97
2019-01-06T17:30:29.766Z,10.23
2019-01-06T17:32:57.489Z,8.07
2019-01-06T17:35:42.156Z,8.87
2019-01-06T17:38:15.826Z,8.83
2019-01-06T17:40:43.633Z,12.23
2019-01-06T17:43:14.445Z,12.37
2019-01-06T17:45:48.294Z,10.80
2019-01-06T17:48:16.047Z,8.20
2019-01-06T17:50:43.772Z,7.13
2019-01-06T17:53:11.498Z,6.30
2019-01-06T17:55:55.947Z,22.10
2019-01-06T17:58:41.959Z,9.20
2019-01-06T18:01:26.578Z,8.07
2019-01-06T18:04:11.230Z,8.70
2019-01-06T18:06:39.006Z,7.33
2019-01-06T18:09:07.258Z,8.33
2019-01-06T18:11:34.999Z,7.63
2019-01-06T18:14:19.834Z,13.57
2019-01-06T18:16:57.734Z,9.70
2019-01-06T18:19:28.146Z,9.40
2019-01-06T18:22:12.475Z,9.80
2019-01-06T18:24:56.830Z,11.53
2019-01-06T18:27:30.352Z,19.23
2019-01-06T18:30:13.237Z,14.13
2019-01-06T18:32:40.951Z,8.33
2019-01-06T18:35:11.713Z,7.73
2019-01-06T18:37:57.577Z,8.07
2019-01-06T18:40:37.589Z,7.50
2019-01-06T18:43:22.194Z,11.40
2019-01-06T18:46:05.083Z,10.93
2019-01-06T18:48:32.833Z,10.47
2019-01-06T18:51:17.412Z,10.03
2019-01-06T18:54:03.312Z,12.53
2019-01-06T18:56:36.927Z,8.67
2019-01-06T18:59:10.869Z,11.70
2019-01-06T19:01:38.738Z,11.70
2019-01-06T19:04:09.499Z,12.00
2019-01-06T19:06:53.957Z,14.87
2019-01-06T19:09:21.706Z,11.40
2019-01-06T19:11:52.561Z,20.53
2019-01-06T19:14:20.297Z,12.10
2019-01-06T19:17:06.362Z,19.00
2019-01-06T19:19:49.209Z,16.60
2019-01-06T19:22:33.481Z,15.00
2019-01-06T19:25:17.812Z,14.13
2019-01-06T19:27:48.423Z,9.77
2019-01-06T19:30:22.377Z,12.43
2019-01-06T19:33:02.425Z,13.83
2019-01-06T19:35:30.183Z,12.63
2019-01-06T19:37:57.953Z,14.60
2019-01-06T19:40:42.516Z,15.20
2019-01-06T19:43:19.094Z,18.47
2019-01-06T19:46:04.714Z,14.53
2019-01-06T19:48:32.495Z,14.93
2019-01-06T19:51:09.065Z,15.37
2019-01-06T19:53:54.908Z,14.23
2019-01-06T19:56:37.992Z,16.17
2019-01-06T19:59:22.720Z,14.23
2019-01-06T20:01:50.478Z,12.40
2019-01-06T20:04:18.226Z,13.53
2019-01-06T20:07:02.703Z,13.33
2019-01-06T20:09:47.092Z,12.67
2019-01-06T20:12:15.181Z,14.20
2019-01-06T20:14:59.669Z,12.50
2019-01-06T20:17:42.470Z,11.27
2019-01-06T20:20:10.326Z,11.67
2019-01-06T20:22:54.781Z,11.67
2019-01-06T20:25:39.647Z,10.97
2019-01-06T20:28:19.464Z,10.07
2019-01-06T20:30:59.165Z,11.43
2019-01-06T20:33:43.898Z,13.07
2019-01-06T20:36:11.638Z,10.80
2019-01-06T20:38:54.682Z,16.03
2019-01-06T20:41:25.080Z,15.83
2019-01-06T20:43:55.857Z,13.90
2019-01-06T20:46:32.737Z,16.67
2019-01-06T20:49:06.680Z,12.57
2019-01-06T20:51:43.827Z,13.40
2019-01-06T20:54:28.625Z,18.50
2019-01-06T20:57:13.001Z,16.67
2019-01-06T20:59:43.592Z,14.67
2019-01-06T21:02:27.884Z,17.77
2019-01-06T21:05:07.523Z,13.77
2019-01-06T21:07:35.362Z,17.57
2019-01-06T21:10:09.366Z,16.33
2019-01-06T21:12:46.172Z,18.23
2019-01-06T21:15:26.284Z,16.47
2019-01-06T21:18:06.067Z,19.83
2019-01-06T21:20:45.764Z,19.50
2019-01-06T21:23:25.858Z,17.37
2019-01-06T21:25:53.583Z,19.40
2019-01-06T21:28:21.448Z,20.60
2019-01-06T21:31:06.074Z,26.53
2019-01-06T21:33:39.640Z,26.63
2019-01-06T21:36:24.217Z,18.60
2019-01-06T21:39:08.558Z,19.10
2019-01-06T21:41:36.306Z,20.40
2019-01-06T21:44:20.623Z,23.27
2019-01-06T21:47:05.210Z,20.97
2019-01-06T21:49:51.129Z,23.40
2019-01-06T21:52:18.873Z,23.87
2019-01-06T21:55:03.273Z,22.60
2019-01-06T21:57:36.886Z,24.80
2019-01-06T22:00:10.734Z,24.40
2019-01-06T22:02:44.675Z,21.57
2019-01-06T22:05:12.428Z,21.30
2019-01-06T22:07:42.954Z,24.80
2019-01-06T22:10:13.793Z,22.63
2019-01-06T22:12:41.621Z,24.13
2019-01-06T22:15:24.158Z,26.20
2019-01-06T22:18:08.591Z,29.80
2019-01-06T22:20:52.972Z,23.10
2019-01-06T22:23:35.770Z,34.80
2019-01-06T22:26:09.476Z,27.20
2019-01-06T22:28:43.000Z,25.70
2019-01-06T22:31:29.005Z,21.87
2019-01-06T22:34:08.616Z,20.87
2019-01-06T22:36:48.721Z,20.07
2019-01-06T22:39:19.491Z,21.07
2019-01-06T22:42:04.148Z,17.67
2019-01-06T22:44:37.842Z,21.13
2019-01-06T22:47:23.930Z,16.47
2019-01-06T22:50:09.892Z,16.50
2019-01-06T22:52:54.222Z,19.00
2019-01-06T22:55:21.966Z,21.57
2019-01-06T22:57:52.766Z,16.90
2019-01-06T23:00:38.449Z,15.40
2019-01-06T23:03:23.081Z,16.20
2019-01-06T23:05:53.586Z,16.50
2019-01-06T23:08:21.316Z,15.87
2019-01-06T23:10:49.175Z,16.50
2019-01-06T23:13:16.929Z,18.80
2019-01-06T23:15:50.756Z,18.23
2019-01-06T23:18:18.494Z,15.80
2019-01-06T23:20:49.357Z,14.90
2019-01-06T23:23:32.086Z,12.57
2019-01-06T23:25:59.944Z,12.87
2019-01-06T23:28:39.780Z,13.50
2019-01-06T23:31:10.513Z,11.87
2019-01-06T23:33:53.146Z,10.83
2019-01-06T23:36:20.908Z,11.80
2019-01-06T23:39:00.287Z,13.40
2019-01-06T23:41:28.051Z,11.43
2019-01-06T23:44:12.422Z,14.87
2019-01-06T23:46:55.050Z,12.60
2019-01-06T23:49:39.186Z,13.43
2019-01-06T23:52:21.832Z,15.07
2019-01-06T23:54:58.400Z,14.90
2019-01-06T23:57:41.050Z,14.20
